createdAt,value
2018-07-14T00:00:12.873Z,15.80
2018-07-14T00:02:42.088Z,15.70
2018-07-14T00:05:12.637Z,15.70
2018-07-14T00:07:41.182Z,15.60
2018-07-14T00:10:09.776Z,15.60
2018-07-14T00:12:38.355Z,15.80
2018-07-14T00:15:08.185Z,15.70
2018-07-14T00:17:36.722Z,15.70
2018-07-14T00:20:05.903Z,15.60
2018-07-14T00:22:35.765Z,15.60
2018-07-14T00:25:04.295Z,15.60
2018-07-14T00:27:32.858Z,15.60
2018-07-14T00:30:01.380Z,15.60
2018-07-14T00:32:29.954Z,15.50
2018-07-14T00:34:58.488Z,15.40
2018-07-14T00:37:27.117Z,15.30
2018-07-14T00:39:55.799Z,15.30
2018-07-14T00:42:25.372Z,15.30
2018-07-14T00:44:53.887Z,15.20
2018-07-14T00:47:22.987Z,15.20
2018-07-14T00:49:51.533Z,15.20
2018-07-14T00:52:20.047Z,15.20
2018-07-14T00:54:48.544Z,15.10
2018-07-14T00:57:17.642Z,15.10
2018-07-14T00:59:46.207Z,15.10
2018-07-14T01:02:14.960Z,15.10
2018-07-14T01:04:43.488Z,15.10
2018-07-14T01:07:12.006Z,15.10
2018-07-14T01:09:40.549Z,15.00
2018-07-14T01:12:09.134Z,15.00
2018-07-14T01:14:37.670Z,15.00
2018-07-14T01:17:06.283Z,14.90
2018-07-14T01:19:34.950Z,14.90
2018-07-14T01:22:03.656Z,14.90
2018-07-14T01:24:32.193Z,14.80
2018-07-14T01:27:00.724Z,14.80
2018-07-14T01:29:29.961Z,14.80
2018-07-14T01:31:58.476Z,14.70
2018-07-14T01:34:27.349Z,14.70
2018-07-14T01:36:55.846Z,14.70
2018-07-14T01:39:24.389Z,14.60
2018-07-14T01:41:53.557Z,14.60
2018-07-14T01:44:22.086Z,14.60
2018-07-14T01:46:50.605Z,14.60
2018-07-14T01:49:19.664Z,14.60
2018-07-14T01:51:48.185Z,14.50
2018-07-14T01:54:16.684Z,14.50
2018-07-14T01:56:45.197Z,14.50
2018-07-14T01:59:13.736Z,14.50
2018-07-14T02:01:42.327Z,14.50
2018-07-14T02:04:10.895Z,14.50
2018-07-14T02:06:39.406Z,14.40
2018-07-14T02:09:07.926Z,14.50
2018-07-14T02:11:36.461Z,14.60
2018-07-14T02:14:05.278Z,14.60
2018-07-14T02:16:33.813Z,14.50
2018-07-14T02:19:02.365Z,14.50
2018-07-14T02:21:30.974Z,14.50
2018-07-14T02:23:59.504Z,14.50
2018-07-14T02:26:28.160Z,14.40
2018-07-14T02:28:56.680Z,14.50
2018-07-14T02:31:25.211Z,14.70
2018-07-14T02:33:53.765Z,14.60
2018-07-14T02:36:22.349Z,14.60
2018-07-14T02:38:50.986Z,14.60
2018-07-14T02:41:19.524Z,14.50
2018-07-14T02:43:48.048Z,14.40
2018-07-14T02:46:16.615Z,14.40
2018-07-14T02:48:46.142Z,14.40
2018-07-14T02:51:14.666Z,14.50
2018-07-14T02:53:43.176Z,14.40
2018-07-14T02:56:11.737Z,14.40
2018-07-14T02:58:41.030Z,14.40
2018-07-14T03:01:10.821Z,14.40
2018-07-14T03:03:39.355Z,14.50
2018-07-14T03:06:07.939Z,14.30
2018-07-14T03:08:36.466Z,14.20
2018-07-14T03:11:05.015Z,14.20
2018-07-14T03:13:33.539Z,14.10
2018-07-14T03:16:02.102Z,14.10
2018-07-14T03:18:31.055Z,14.00
2018-07-14T03:20:59.975Z,14.00
2018-07-14T03:23:28.517Z,14.00
2018-07-14T03:25:57.069Z,13.90
2018-07-14T03:28:25.586Z,14.00
2018-07-14T03:30:54.605Z,14.00
2018-07-14T03:33:23.194Z,13.90
2018-07-14T03:35:51.717Z,13.80
2018-07-14T03:38:20.202Z,13.70
2018-07-14T03:40:48.785Z,13.70
2018-07-14T03:43:17.308Z,13.70
2018-07-14T03:45:45.874Z,13.60
2018-07-14T03:48:14.402Z,13.60
2018-07-14T03:50:42.903Z,13.60
2018-07-14T03:53:11.448Z,13.60
2018-07-14T03:55:40.697Z,13.60
2018-07-14T03:58:09.382Z,13.70
2018-07-14T04:00:37.910Z,13.60
2018-07-14T04:03:06.489Z,13.60
2018-07-14T04:05:35.002Z,13.50
2018-07-14T04:08:03.736Z,13.50
2018-07-14T04:10:33.248Z,13.50
2018-07-14T04:13:01.912Z,13.50
2018-07-14T04:15:30.416Z,13.50
2018-07-14T04:18:04.023Z,13.60
2018-07-14T04:20:33.592Z,13.60
2018-07-14T04:23:02.607Z,13.70
2018-07-14T04:25:32.015Z,13.70
2018-07-14T04:28:01.342Z,13.70
2018-07-14T04:30:29.893Z,13.80
2018-07-14T04:32:58.745Z,13.90
2018-07-14T04:35:27.821Z,14.10
2018-07-14T04:37:57.345Z,14.20
2018-07-14T04:40:25.912Z,14.40
2018-07-14T04:42:55.053Z,14.50
2018-07-14T04:45:23.573Z,14.70
2018-07-14T04:47:52.139Z,14.80
2018-07-14T04:50:20.660Z,15.00
2018-07-14T04:52:49.189Z,15.10
2018-07-14T04:55:17.762Z,15.30
2018-07-14T04:57:46.298Z,15.60
2018-07-14T05:00:14.816Z,15.80
2018-07-14T05:02:43.480Z,16.00
2018-07-14T05:05:12.029Z,16.10
2018-07-14T05:07:40.605Z,16.10
2018-07-14T05:10:09.292Z,16.20
2018-07-14T05:12:37.938Z,16.30
2018-07-14T05:15:06.573Z,16.40
2018-07-14T05:17:35.113Z,16.60
2018-07-14T05:20:03.706Z,16.60
2018-07-14T05:22:32.187Z,16.70
2018-07-14T05:25:00.798Z,16.80
2018-07-14T05:27:29.361Z,16.80
2018-07-14T05:29:57.923Z,16.80
2018-07-14T05:32:26.460Z,16.90
2018-07-14T05:34:54.999Z,16.90
2018-07-14T05:37:23.611Z,17.00
2018-07-14T05:39:52.169Z,17.10
2018-07-14T05:42:20.696Z,17.30
2018-07-14T05:44:49.193Z,17.50
2018-07-14T05:47:17.725Z,17.70
2018-07-14T05:49:46.269Z,17.80
2018-07-14T05:52:14.816Z,18.10
2018-07-14T05:54:43.392Z,18.40
2018-07-14T05:57:11.902Z,18.70
2018-07-14T05:59:41.029Z,18.90
2018-07-14T06:02:09.658Z,18.90
2018-07-14T06:04:38.215Z,19.20
2018-07-14T06:07:06.761Z,19.10
2018-07-14T06:09:35.312Z,19.10
2018-07-14T06:12:03.881Z,19.10
2018-07-14T06:14:32.398Z,19.50
2018-07-14T06:17:00.945Z,19.80
2018-07-14T06:19:29.504Z,20.00
2018-07-14T06:21:58.022Z,20.50
2018-07-14T06:24:26.544Z,20.90
2018-07-14T06:26:55.104Z,20.90
2018-07-14T06:29:23.612Z,21.00
2018-07-14T06:31:52.423Z,21.30
2018-07-14T06:34:21.864Z,21.70
2018-07-14T06:36:50.369Z,21.70
2018-07-14T06:39:18.927Z,22.10
2018-07-14T06:41:47.446Z,22.50
2018-07-14T06:44:16.631Z,22.90
2018-07-14T06:46:45.165Z,23.00
2018-07-14T06:49:13.679Z,22.70
2018-07-14T06:51:42.198Z,23.00
2018-07-14T06:54:10.783Z,23.60
2018-07-14T06:56:40.161Z,23.70
2018-07-14T06:59:08.703Z,24.50
2018-07-14T07:01:37.295Z,24.10
2018-07-14T07:04:05.805Z,24.80
2018-07-14T07:06:35.080Z,25.30
2018-07-14T07:09:04.106Z,25.00
2018-07-14T07:11:32.669Z,24.20
2018-07-14T07:14:01.868Z,24.90
2018-07-14T07:16:31.099Z,25.60
2018-07-14T07:18:59.633Z,25.80
2018-07-14T07:21:28.270Z,26.00
2018-07-14T07:23:56.855Z,26.10
2018-07-14T07:26:25.388Z,25.90
2018-07-14T07:28:54.079Z,26.40
2018-07-14T07:31:22.591Z,26.30
2018-07-14T07:33:51.152Z,26.70
2018-07-14T07:36:19.721Z,26.70
2018-07-14T07:38:48.503Z,26.50
2018-07-14T07:41:18.584Z,25.60
2018-07-14T07:43:47.091Z,26.40
2018-07-14T07:46:15.849Z,26.50
2018-07-14T07:48:44.458Z,27.20
2018-07-14T07:51:13.010Z,26.30
2018-07-14T07:53:41.897Z,26.40
2018-07-14T07:56:10.436Z,26.10
2018-07-14T07:58:38.980Z,26.20
2018-07-14T08:01:07.630Z,25.90
2018-07-14T08:03:36.169Z,25.90
2018-07-14T08:06:04.931Z,26.80
2018-07-14T08:08:33.482Z,27.50
2018-07-14T08:11:02.052Z,27.60
2018-07-14T08:13:30.548Z,27.40
2018-07-14T08:15:59.146Z,28.00
2018-07-14T08:18:27.672Z,28.00
2018-07-14T08:20:56.221Z,28.10
2018-07-14T08:23:26.652Z,27.70
2018-07-14T08:25:56.835Z,27.80
2018-07-14T08:28:25.393Z,28.00
2018-07-14T08:30:53.918Z,28.10
2018-07-14T08:33:22.449Z,27.80
2018-07-14T08:35:51.931Z,27.90
2018-07-14T08:38:20.500Z,27.80
2018-07-14T08:40:49.077Z,27.80
2018-07-14T08:43:17.626Z,28.00
2018-07-14T08:45:46.177Z,27.50
2018-07-14T08:48:16.766Z,28.10
2018-07-14T08:50:45.282Z,28.40
2018-07-14T08:53:13.842Z,28.20
2018-07-14T08:55:42.371Z,27.80
2018-07-14T08:58:10.899Z,28.00
2018-07-14T09:00:39.466Z,28.50
2018-07-14T09:03:07.996Z,28.40
2018-07-14T09:05:36.539Z,28.10
2018-07-14T09:08:05.211Z,28.70
2018-07-14T09:10:33.750Z,28.50
2018-07-14T09:13:02.349Z,28.00
2018-07-14T09:15:30.865Z,28.70
2018-07-14T09:17:59.431Z,28.60
2018-07-14T09:20:35.033Z,28.40
2018-07-14T09:23:03.567Z,29.00
2018-07-14T09:25:32.920Z,30.00
2018-07-14T09:28:01.579Z,29.70
2018-07-14T09:30:30.112Z,30.80
2018-07-14T09:32:58.638Z,31.10
2018-07-14T09:35:27.187Z,30.90
2018-07-14T09:37:55.786Z,30.30
2018-07-14T09:40:24.318Z,30.60
2018-07-14T09:42:54.309Z,30.60
2018-07-14T09:45:22.856Z,29.60
2018-07-14T09:47:51.385Z,30.10
2018-07-14T09:50:19.967Z,30.70
2018-07-14T09:52:48.511Z,31.50
2018-07-14T09:55:17.041Z,32.40
2018-07-14T09:57:45.708Z,32.00
2018-07-14T10:00:20.094Z,31.80
2018-07-14T10:02:48.645Z,33.00
2018-07-14T10:05:17.157Z,33.60
2018-07-14T10:07:45.694Z,31.80
2018-07-14T10:10:14.639Z,31.70
2018-07-14T10:12:43.813Z,32.90
2018-07-14T10:15:12.371Z,32.20
2018-07-14T10:17:40.930Z,31.80
2018-07-14T10:20:09.504Z,32.00
2018-07-14T10:22:38.018Z,33.40
2018-07-14T10:25:06.735Z,32.30
2018-07-14T10:27:35.264Z,32.20
2018-07-14T10:30:03.893Z,32.40
2018-07-14T10:32:32.494Z,32.90
2018-07-14T10:35:01.917Z,33.10
2018-07-14T10:37:30.459Z,33.40
2018-07-14T10:39:59.004Z,35.00
2018-07-14T10:42:27.579Z,34.50
2018-07-14T10:44:56.100Z,33.30
2018-07-14T10:47:24.716Z,32.80
2018-07-14T10:49:53.350Z,32.90
2018-07-14T10:52:21.875Z,33.80
2018-07-14T10:54:50.454Z,33.60
2018-07-14T10:57:20.079Z,34.30
2018-07-14T10:59:48.648Z,34.10
2018-07-14T11:02:17.238Z,35.30
2018-07-14T11:04:46.543Z,36.00
2018-07-14T11:07:15.058Z,36.20
2018-07-14T11:09:43.594Z,35.80
2018-07-14T11:12:12.153Z,34.90
2018-07-14T11:14:40.681Z,34.90
2018-07-14T11:17:09.873Z,34.60
2018-07-14T11:19:38.385Z,35.80
2018-07-14T11:22:07.170Z,35.20
2018-07-14T11:24:35.722Z,36.30
2018-07-14T11:27:04.350Z,35.70
2018-07-14T11:29:32.909Z,34.40
2018-07-14T11:32:01.453Z,34.80
2018-07-14T11:34:30.064Z,34.90
2018-07-14T11:36:58.594Z,35.30
2018-07-14T11:39:27.138Z,36.00
2018-07-14T11:41:55.663Z,35.40
2018-07-14T11:44:24.493Z,34.70
2018-07-14T11:46:53.042Z,35.30
2018-07-14T11:49:21.560Z,35.80
2018-07-14T11:51:50.105Z,35.60
2018-07-14T11:54:18.798Z,35.60
2018-07-14T11:56:47.283Z,35.80
2018-07-14T11:59:16.019Z,35.70
2018-07-14T12:01:44.708Z,34.90
2018-07-14T12:04:13.251Z,33.80
2018-07-14T12:06:41.791Z,34.70
2018-07-14T12:09:10.598Z,34.60
2018-07-14T12:11:39.202Z,34.20
2018-07-14T12:14:08.543Z,35.00
2018-07-14T12:16:37.086Z,35.00
2018-07-14T12:19:05.606Z,34.90
2018-07-14T12:21:34.163Z,35.40
2018-07-14T12:24:02.731Z,35.60
2018-07-14T12:26:31.249Z,36.80
2018-07-14T12:28:59.863Z,37.60
2018-07-14T12:31:28.419Z,37.20
2018-07-14T12:33:56.924Z,37.50
2018-07-14T12:36:25.434Z,37.70
2018-07-14T12:38:54.148Z,37.40
2018-07-14T12:41:22.831Z,37.60
2018-07-14T12:43:51.355Z,36.80
2018-07-14T12:46:19.940Z,36.70
2018-07-14T12:48:48.523Z,37.60
2018-07-14T12:51:17.068Z,37.00
2018-07-14T12:53:45.613Z,36.60
2018-07-14T12:56:14.203Z,35.80
2018-07-14T12:58:42.991Z,35.00
2018-07-14T13:01:11.581Z,34.30
2018-07-14T13:03:40.107Z,35.20
2018-07-14T13:06:08.738Z,35.30
2018-07-14T13:08:37.379Z,35.80
2018-07-14T13:13:34.253Z,35.70
2018-07-14T13:16:02.816Z,36.20
2018-07-14T13:18:31.365Z,36.80
2018-07-14T13:20:59.882Z,35.30
2018-07-14T13:23:28.404Z,35.10
2018-07-14T13:25:56.919Z,35.60
2018-07-14T13:28:25.419Z,36.40
2018-07-14T13:30:53.961Z,36.50
2018-07-14T13:33:22.506Z,35.00
2018-07-14T13:35:51.018Z,35.10
2018-07-14T13:38:20.506Z,35.50
2018-07-14T13:40:49.046Z,36.00
2018-07-14T13:43:18.389Z,36.50
2018-07-14T13:45:47.012Z,37.30
2018-07-14T13:48:15.560Z,36.30
2018-07-14T13:50:45.070Z,37.20
2018-07-14T13:53:13.645Z,37.20
2018-07-14T13:55:42.221Z,36.40
2018-07-14T13:58:10.737Z,36.70
2018-07-14T14:00:39.310Z,36.20
2018-07-14T14:03:07.878Z,35.60
2018-07-14T14:05:36.426Z,35.70
2018-07-14T14:08:04.988Z,34.40
2018-07-14T14:10:33.517Z,35.10
2018-07-14T14:13:02.065Z,35.70
2018-07-14T14:15:30.803Z,35.40
2018-07-14T14:17:59.367Z,34.70
2018-07-14T14:22:56.373Z,35.60
2018-07-14T14:25:25.662Z,36.50
2018-07-14T14:27:54.175Z,37.10
2018-07-14T14:30:22.735Z,36.70
2018-07-14T14:32:51.308Z,35.20
2018-07-14T14:35:19.807Z,34.50
2018-07-14T14:37:48.380Z,35.40
2018-07-14T14:40:16.934Z,36.30
2018-07-14T14:42:45.452Z,35.60
2018-07-14T14:45:14.012Z,34.10
2018-07-14T14:47:42.590Z,33.50
2018-07-14T14:50:11.130Z,33.10
2018-07-14T14:52:39.734Z,34.20
2018-07-14T14:55:08.422Z,33.70
2018-07-14T14:57:36.925Z,34.30
2018-07-14T15:02:34.955Z,34.30
2018-07-14T15:05:03.593Z,33.60
2018-07-14T15:07:32.385Z,33.80
2018-07-14T15:10:00.935Z,34.40
2018-07-14T15:12:29.463Z,35.00
2018-07-14T15:14:57.971Z,34.20
2018-07-14T15:17:27.767Z,33.80
2018-07-14T15:19:56.265Z,34.00
2018-07-14T15:22:24.879Z,34.50
2018-07-14T15:24:53.391Z,34.00
2018-07-14T15:27:21.943Z,34.10
2018-07-14T15:29:50.483Z,33.90
2018-07-14T15:32:19.087Z,33.80
2018-07-14T15:34:47.591Z,32.90
2018-07-14T15:37:16.140Z,33.00
2018-07-14T15:39:44.649Z,32.00
2018-07-14T15:42:13.164Z,33.00
2018-07-14T15:44:42.273Z,33.00
2018-07-14T15:47:10.793Z,32.70
2018-07-14T15:49:40.025Z,32.60
2018-07-14T15:52:08.682Z,32.80
2018-07-14T15:54:37.576Z,33.30
2018-07-14T15:57:06.111Z,33.10
2018-07-14T15:59:34.927Z,32.70
2018-07-14T16:02:03.501Z,32.20
2018-07-14T16:07:00.329Z,32.50
2018-07-14T16:09:28.943Z,32.80
2018-07-14T16:11:57.466Z,32.80
2018-07-14T16:14:26.936Z,32.70
2018-07-14T16:16:55.446Z,32.50
2018-07-14T16:19:24.007Z,32.40
2018-07-14T16:21:52.546Z,31.80
2018-07-14T16:24:21.063Z,31.60
2018-07-14T16:26:49.613Z,31.50
2018-07-14T16:29:18.142Z,31.50
2018-07-14T16:31:46.679Z,31.60
2018-07-14T16:34:15.298Z,31.90
2018-07-14T16:39:12.057Z,32.10
2018-07-14T16:41:41.016Z,32.20
2018-07-14T16:44:09.674Z,31.80
2018-07-14T16:46:39.055Z,31.80
2018-07-14T16:49:07.640Z,31.40
2018-07-14T16:51:36.262Z,31.10
2018-07-14T16:54:04.893Z,30.60
2018-07-14T16:56:33.413Z,30.60
2018-07-14T16:59:02.012Z,30.40
2018-07-14T17:01:31.532Z,29.90
2018-07-14T17:04:00.059Z,29.40
2018-07-14T17:06:29.214Z,28.80
2018-07-14T17:09:00.837Z,28.50
2018-07-14T17:11:30.037Z,28.20
2018-07-14T17:13:58.602Z,27.90
2018-07-14T17:16:27.120Z,27.80
2018-07-14T17:18:55.717Z,27.70
2018-07-14T17:21:24.273Z,27.50
2018-07-14T17:23:52.784Z,27.50
2018-07-14T17:26:21.932Z,27.40
2018-07-14T17:28:50.854Z,27.30
2018-07-14T17:31:19.359Z,27.30
2018-07-14T17:33:47.879Z,27.20
2018-07-14T17:36:17.362Z,27.30
2018-07-14T17:38:45.880Z,27.30
2018-07-14T17:41:14.428Z,27.20
2018-07-14T17:43:42.965Z,27.20
2018-07-14T17:46:11.479Z,27.10
2018-07-14T17:48:40.007Z,27.10
2018-07-14T17:51:08.756Z,27.00
2018-07-14T17:53:37.259Z,26.90
2018-07-14T17:56:06.685Z,27.00
2018-07-14T17:58:35.249Z,26.80
2018-07-14T18:01:03.806Z,26.80
2018-07-14T18:03:32.338Z,26.60
2018-07-14T18:06:03.275Z,26.60
2018-07-14T18:08:31.945Z,26.60
2018-07-14T18:11:01.078Z,26.60
2018-07-14T18:13:29.641Z,26.50
2018-07-14T18:15:59.078Z,26.50
2018-07-14T18:18:27.604Z,26.30
2018-07-14T18:20:56.117Z,26.20
2018-07-14T18:23:24.611Z,26.10
2018-07-14T18:25:53.142Z,26.00
2018-07-14T18:28:21.689Z,26.00
2018-07-14T18:30:50.210Z,26.00
2018-07-14T18:33:18.852Z,25.80
2018-07-14T18:35:47.391Z,25.70
2018-07-14T18:38:15.976Z,25.70
2018-07-14T18:40:44.502Z,25.70
2018-07-14T18:43:13.060Z,25.60
2018-07-14T18:45:41.674Z,25.50
2018-07-14T18:48:10.222Z,25.40
2018-07-14T18:50:38.860Z,25.20
2018-07-14T18:53:07.511Z,25.20
2018-07-14T18:55:36.068Z,25.10
2018-07-14T18:58:04.606Z,25.10
2018-07-14T19:00:33.164Z,25.10
2018-07-14T19:03:01.736Z,25.00
2018-07-14T19:05:30.351Z,24.90
2018-07-14T19:07:58.961Z,24.70
2018-07-14T19:10:27.475Z,24.70
2018-07-14T19:12:56.060Z,24.70
2018-07-14T19:15:24.624Z,24.70
2018-07-14T19:17:53.173Z,24.60
2018-07-14T19:20:21.728Z,24.50
2018-07-14T19:22:50.338Z,24.40
2018-07-14T19:25:18.844Z,24.40
2018-07-14T19:27:49.085Z,24.10
2018-07-14T19:30:17.686Z,23.80
2018-07-14T19:32:46.238Z,23.70
2018-07-14T19:35:14.791Z,23.60
2018-07-14T19:37:43.475Z,23.40
2018-07-14T19:40:12.025Z,23.40
2018-07-14T19:42:40.587Z,23.50
2018-07-14T19:45:09.247Z,23.40
2018-07-14T19:47:43.563Z,23.40
2018-07-14T19:50:12.079Z,23.20
2018-07-14T19:52:40.675Z,23.00
2018-07-14T19:55:09.249Z,23.00
2018-07-14T19:57:37.774Z,22.90
2018-07-14T20:00:06.347Z,22.60
2018-07-14T20:02:34.910Z,22.30
2018-07-14T20:05:03.635Z,22.00
2018-07-14T20:07:32.936Z,21.90
2018-07-14T20:10:01.547Z,21.70
2018-07-14T20:12:30.186Z,21.50
2018-07-14T20:14:58.713Z,21.20
2018-07-14T20:17:27.312Z,21.10
2018-07-14T20:19:55.881Z,21.00
2018-07-14T20:22:24.431Z,20.80
2018-07-14T20:24:52.976Z,20.70
2018-07-14T20:27:21.490Z,20.40
2018-07-14T20:29:50.009Z,20.30
2018-07-14T20:32:18.625Z,20.20
2018-07-14T20:34:47.123Z,20.10
2018-07-14T20:37:16.238Z,20.10
2018-07-14T20:39:44.907Z,20.00
2018-07-14T20:42:13.701Z,19.70
2018-07-14T20:44:42.202Z,19.70
2018-07-14T20:47:11.596Z,19.80
2018-07-14T20:49:40.633Z,19.70
2018-07-14T20:52:09.212Z,19.90
2018-07-14T20:54:37.766Z,20.00
2018-07-14T20:57:06.338Z,19.90
2018-07-14T20:59:34.882Z,19.70
2018-07-14T21:02:03.455Z,19.50
2018-07-14T21:04:31.965Z,19.30
2018-07-14T21:07:00.601Z,19.10
2018-07-14T21:09:29.165Z,19.00
2018-07-14T21:11:57.687Z,19.00
2018-07-14T21:14:26.268Z,18.80
2018-07-14T21:16:54.807Z,18.80
2018-07-14T21:19:23.327Z,18.70
2018-07-14T21:21:51.907Z,18.60
2018-07-14T21:24:20.473Z,18.50
2018-07-14T21:26:48.999Z,18.40
2018-07-14T21:29:17.497Z,18.40
2018-07-14T21:31:46.594Z,18.30
2018-07-14T21:34:15.130Z,18.30
2018-07-14T21:36:43.613Z,18.20
2018-07-14T21:39:12.172Z,18.10
2018-07-14T21:41:40.781Z,18.00
2018-07-14T21:44:09.405Z,18.00
2018-07-14T21:46:37.935Z,17.90
2018-07-14T21:49:06.554Z,17.80
2018-07-14T21:51:35.071Z,17.60
2018-07-14T21:54:03.631Z,17.50
2018-07-14T21:56:32.160Z,17.50
2018-07-14T21:59:00.762Z,17.40
2018-07-14T22:01:29.950Z,17.40
2018-07-14T22:03:59.162Z,17.40
2018-07-14T22:06:27.732Z,17.40
2018-07-14T22:08:56.280Z,17.20
2018-07-14T22:11:24.796Z,17.10
2018-07-14T22:13:53.318Z,16.90
2018-07-14T22:16:21.868Z,16.90
2018-07-14T22:18:50.367Z,16.80
2018-07-14T22:21:19.132Z,16.80
2018-07-14T22:23:47.710Z,16.70
2018-07-14T22:26:16.255Z,16.60
2018-07-14T22:28:44.736Z,16.50
2018-07-14T22:31:13.276Z,16.50
2018-07-14T22:33:41.865Z,16.40
2018-07-14T22:36:10.396Z,16.50
2018-07-14T22:38:38.948Z,16.40
2018-07-14T22:41:07.454Z,16.40
2018-07-14T22:43:35.979Z,16.30
2018-07-14T22:46:04.544Z,16.20
2018-07-14T22:48:33.054Z,16.10
2018-07-14T22:51:01.561Z,15.90
2018-07-14T22:53:30.274Z,15.90
2018-07-14T22:55:58.777Z,15.90
2018-07-14T22:58:27.344Z,15.90
2018-07-14T23:00:56.419Z,15.90
2018-07-14T23:03:24.960Z,15.90
2018-07-14T23:05:53.456Z,15.80
2018-07-14T23:08:22.065Z,15.80
2018-07-14T23:10:50.601Z,15.80
2018-07-14T23:13:19.139Z,15.70
2018-07-14T23:15:48.864Z,15.60
2018-07-14T23:18:17.633Z,15.60
2018-07-14T23:20:46.145Z,15.50
2018-07-14T23:23:14.681Z,15.50
2018-07-14T23:25:43.263Z,15.40
2018-07-14T23:28:11.755Z,15.40
2018-07-14T23:30:40.881Z,15.30
2018-07-14T23:33:09.526Z,15.30
2018-07-14T23:35:38.048Z,15.20
2018-07-14T23:38:06.634Z,15.20
2018-07-14T23:40:35.150Z,15.20
2018-07-14T23:43:03.734Z,15.10
2018-07-14T23:45:32.266Z,15.10
2018-07-14T23:48:00.777Z,15.00
2018-07-14T23:50:29.274Z,15.00
2018-07-14T23:52:57.801Z,15.00
2018-07-14T23:55:26.331Z,15.00
2018-07-14T23:57:54.877Z,15.00
